sensor_id;sensor_type;location;lat;lon;timestamp;pressure;altitude;pressure_sealevel;temperature;humidity
61434;BME280;47300;46.192;9.000;2022-11-15T00:00:53;98674.75;;;6.49;100.00
61434;BME280;47300;46.192;9.000;2022-11-15T00:03:21;98677.53;;;6.60;100.00
61434;BME280;47300;46.192;9.000;2022-11-15T00:05:47;98684.44;;;6.58;100.00
61434;BME280;47300;46.192;9.000;2022-11-15T00:08:12;98685.66;;;6.81;100.00
61434;BME280;47300;46.192;9.000;2022-11-15T00:10:38;98685.56;;;6.75;100.00
61434;BME280;47300;46.192;9.000;2022-11-15T00:13:12;98683.00;;;6.77;100.00
61434;BME280;47300;46.192;9.000;2022-11-15T00:15:39;98690.06;;;6.84;100.00
61434;BME280;47300;46.192;9.000;2022-11-15T00:18:05;98677.09;;;6.89;100.00
61434;BME280;47300;46.192;9.000;2022-11-15T00:20:33;98665.03;;;6.99;100.00
61434;BME280;47300;46.192;9.000;2022-11-15T00:22:58;98665.03;;;6.99;100.00
61434;BME280;47300;46.192;9.000;2022-11-15T00:25:24;98659.03;;;7.03;100.00
61434;BME280;47300;46.192;9.000;2022-11-15T00:27:49;98654.63;;;7.00;100.00
61434;BME280;47300;46.192;9.000;2022-11-15T00:30:17;98652.78;;;6.93;100.00
61434;BME280;47300;46.192;9.000;2022-11-15T00:32:42;98640.53;;;6.86;100.00
61434;BME280;47300;46.192;9.000;2022-11-15T00:35:07;98634.50;;;6.91;100.00
61434;BME280;47300;46.192;9.000;2022-11-15T00:37:33;98624.94;;;6.93;100.00
61434;BME280;47300;46.192;9.000;2022-11-15T00:39:58;98612.69;;;6.86;100.00
61434;BME280;47300;46.192;9.000;2022-11-15T00:42:23;98608.41;;;6.91;100.00
61434;BME280;47300;46.192;9.000;2022-11-15T00:44:49;98614.31;;;6.79;100.00
61434;BME280;47300;46.192;9.000;2022-11-15T00:47:14;98605.50;;;6.71;100.00
61434;BME280;47300;46.192;9.000;2022-11-15T00:49:39;98597.00;;;6.83;100.00
61434;BME280;47300;46.192;9.000;2022-11-15T00:52:06;98597.81;;;6.79;100.00
61434;BME280;47300;46.192;9.000;2022-11-15T00:54:31;98598.59;;;6.72;100.00
61434;BME280;47300;46.192;9.000;2022-11-15T00:56:56;98596.84;;;6.72;100.00
61434;BME280;47300;46.192;9.000;2022-11-15T00:59:21;98592.50;;;6.73;100.00
61434;BME280;47300;46.192;9.000;2022-11-15T01:01:47;98596.00;;;6.76;100.00
61434;BME280;47300;46.192;9.000;2022-11-15T01:04:12;98590.91;;;6.84;100.00
61434;BME280;47300;46.192;9.000;2022-11-15T01:06:38;98601.34;;;6.84;100.00
61434;BME280;47300;46.192;9.000;2022-11-15T01:09:03;98602.28;;;6.88;100.00
61434;BME280;47300;46.192;9.000;2022-11-15T01:11:29;98598.50;;;6.65;100.00
61434;BME280;47300;46.192;9.000;2022-11-15T01:13:54;98599.16;;;6.52;100.00
61434;BME280;47300;46.192;9.000;2022-11-15T01:16:20;98593.94;;;6.52;100.00
61434;BME280;47300;46.192;9.000;2022-11-15T01:18:45;98593.94;;;6.52;100.00
61434;BME280;47300;46.192;9.000;2022-11-15T01:21:17;98598.31;;;6.53;100.00
61434;BME280;47300;46.192;9.000;2022-11-15T01:23:42;98593.97;;;6.54;100.00
61434;BME280;47300;46.192;9.000;2022-11-15T01:26:12;98586.03;;;6.46;100.00
61434;BME280;47300;46.192;9.000;2022-11-15T01:28:40;98584.25;;;6.43;100.00
61434;BME280;47300;46.192;9.000;2022-11-15T01:31:14;98592.91;;;6.41;100.00
61434;BME280;47300;46.192;9.000;2022-11-15T01:33:40;98594.66;;;6.42;100.00
61434;BME280;47300;46.192;9.000;2022-11-15T01:36:08;98593.84;;;6.46;100.00
61434;BME280;47300;46.192;9.000;2022-11-15T01:38:35;98583.34;;;6.40;100.00
61434;BME280;47300;46.192;9.000;2022-11-15T01:41:00;98590.44;;;6.48;100.00
61434;BME280;47300;46.192;9.000;2022-11-15T01:43:30;98584.28;;;6.45;100.00
61434;BME280;47300;46.192;9.000;2022-11-15T01:48:38;98591.97;;;6.35;100.00
61434;BME280;47300;46.192;9.000;2022-11-15T01:51:07;98590.22;;;6.34;100.00
61434;BME280;47300;46.192;9.000;2022-11-15T01:53:37;98598.13;;;6.42;100.00
61434;BME280;47300;46.192;9.000;2022-11-15T01:56:06;98602.28;;;6.28;100.00
61434;BME280;47300;46.192;9.000;2022-11-15T01:58:32;98595.25;;;6.23;100.00
61434;BME280;47300;46.192;9.000;2022-11-15T02:00:58;98599.72;;;6.29;100.00
61434;BME280;47300;46.192;9.000;2022-11-15T02:03:28;98581.50;;;6.34;100.00
61434;BME280;47300;46.192;9.000;2022-11-15T02:05:55;98584.16;;;6.35;100.00
61434;BME280;47300;46.192;9.000;2022-11-15T02:08:20;98580.59;;;6.30;100.00
61434;BME280;47300;46.192;9.000;2022-11-15T02:10:46;98586.63;;;6.26;100.00
61434;BME280;47300;46.192;9.000;2022-11-15T02:13:14;98587.41;;;6.22;100.00
61434;BME280;47300;46.192;9.000;2022-11-15T02:15:51;98583.53;;;6.00;100.00
61434;BME280;47300;46.192;9.000;2022-11-15T02:18:32;98588.84;;;6.03;100.00
61434;BME280;47300;46.192;9.000;2022-11-15T02:21:19;98592.47;;;6.11;100.00
61434;BME280;47300;46.192;9.000;2022-11-15T02:23:56;98588.34;;;6.26;100.00
61434;BME280;47300;46.192;9.000;2022-11-15T02:26:58;98582.94;;;6.13;100.00
61434;BME280;47300;46.192;9.000;2022-11-15T02:32:52;98572.38;;;6.05;100.00
61434;BME280;47300;46.192;9.000;2022-11-15T02:37:52;98571.66;;;6.14;100.00
61434;BME280;47300;46.192;9.000;2022-11-15T02:43:09;98586.56;;;6.23;100.00
61434;BME280;47300;46.192;9.000;2022-11-15T02:46:01;98581.16;;;6.09;100.00
61434;BME280;47300;46.192;9.000;2022-11-15T02:48:30;98583.69;;;6.06;100.00
61434;BME280;47300;46.192;9.000;2022-11-15T02:50:57;98590.47;;;5.98;100.00
61434;BME280;47300;46.192;9.000;2022-11-15T02:53:26;98594.63;;;5.86;100.00
61434;BME280;47300;46.192;9.000;2022-11-15T02:55:53;98584.16;;;5.85;100.00
61434;BME280;47300;46.192;9.000;2022-11-15T02:58:48;98585.75;;;5.75;100.00
61434;BME280;47300;46.192;9.000;2022-11-15T03:09:42;98574.94;;;6.02;100.00
61434;BME280;47300;46.192;9.000;2022-11-15T03:15:01;98559.28;;;6.01;100.00
61434;BME280;47300;46.192;9.000;2022-11-15T03:17:47;98555.72;;;5.97;100.00
61434;BME280;47300;46.192;9.000;2022-11-15T03:20:15;98546.91;;;5.89;100.00
61434;BME280;47300;46.192;9.000;2022-11-15T03:22:44;98545.94;;;5.82;100.00
61434;BME280;47300;46.192;9.000;2022-11-15T03:25:16;98556.09;;;5.68;100.00
61434;BME280;47300;46.192;9.000;2022-11-15T03:27:47;98545.59;;;5.62;100.00
61434;BME280;47300;46.192;9.000;2022-11-15T03:30:15;98551.59;;;5.58;100.00
61434;BME280;47300;46.192;9.000;2022-11-15T03:32:51;98548.06;;;5.54;100.00
61434;BME280;47300;46.192;9.000;2022-11-15T03:35:21;98539.38;;;5.55;100.00
61434;BME280;47300;46.192;9.000;2022-11-15T03:40:24;98534.34;;;5.64;100.00
61434;BME280;47300;46.192;9.000;2022-11-15T03:45:23;98530.81;;;5.61;100.00
61434;BME280;47300;46.192;9.000;2022-11-15T03:48:18;98522.97;;;5.59;100.00
61434;BME280;47300;46.192;9.000;2022-11-15T03:50:45;98524.56;;;5.51;100.00
61434;BME280;47300;46.192;9.000;2022-11-15T03:53:12;98518.66;;;5.60;100.00
61434;BME280;47300;46.192;9.000;2022-11-15T03:55:38;98523.06;;;5.65;100.00
61434;BME280;47300;46.192;9.000;2022-11-15T03:58:03;98518.56;;;5.55;100.00
61434;BME280;47300;46.192;9.000;2022-11-15T04:00:29;98510.03;;;5.65;100.00
61434;BME280;47300;46.192;9.000;2022-11-15T04:02:54;98527.47;;;5.68;100.00
61434;BME280;47300;46.192;9.000;2022-11-15T04:05:20;98520.41;;;5.61;100.00
61434;BME280;47300;46.192;9.000;2022-11-15T04:07:45;98514.31;;;5.60;100.00
61434;BME280;47300;46.192;9.000;2022-11-15T04:10:11;98509.13;;;5.62;100.00
61434;BME280;47300;46.192;9.000;2022-11-15T04:12:39;98506.69;;;5.71;100.00
61434;BME280;47300;46.192;9.000;2022-11-15T04:15:11;98490.84;;;5.59;100.00
61434;BME280;47300;46.192;9.000;2022-11-15T04:17:45;98493.50;;;5.62;100.00
61434;BME280;47300;46.192;9.000;2022-11-15T04:23:06;98477.03;;;5.64;100.00
61434;BME280;47300;46.192;9.000;2022-11-15T04:25:52;98471.88;;;5.68;100.00
61434;BME280;47300;46.192;9.000;2022-11-15T04:28:19;98477.22;;;5.75;100.00
61434;BME280;47300;46.192;9.000;2022-11-15T04:30:44;98475.50;;;5.77;100.00
61434;BME280;47300;46.192;9.000;2022-11-15T04:33:09;98477.44;;;5.88;100.00
61434;BME280;47300;46.192;9.000;2022-11-15T04:35:35;98476.38;;;5.76;100.00
61434;BME280;47300;46.192;9.000;2022-11-15T04:38:02;98473.66;;;5.70;100.00
61434;BME280;47300;46.192;9.000;2022-11-15T04:40:27;98478.75;;;5.62;100.00
61434;BME280;47300;46.192;9.000;2022-11-15T04:42:53;98478.56;;;5.50;100.00
61434;BME280;47300;46.192;9.000;2022-11-15T04:45:18;98482.09;;;5.55;100.00
61434;BME280;47300;46.192;9.000;2022-11-15T04:47:44;98482.19;;;5.61;100.00
61434;BME280;47300;46.192;9.000;2022-11-15T04:50:11;98486.81;;;5.78;100.00
61434;BME280;47300;46.192;9.000;2022-11-15T04:52:49;98477.44;;;5.89;100.00
61434;BME280;47300;46.192;9.000;2022-11-15T04:55:15;98477.56;;;5.97;100.00
61434;BME280;47300;46.192;9.000;2022-11-15T04:57:41;98470.44;;;5.87;100.00
61434;BME280;47300;46.192;9.000;2022-11-15T05:00:09;98464.41;;;5.88;100.00
61434;BME280;47300;46.192;9.000;2022-11-15T05:02:34;98466.41;;;6.04;100.00
61434;BME280;47300;46.192;9.000;2022-11-15T05:05:18;98469.13;;;6.12;100.00
61434;BME280;47300;46.192;9.000;2022-11-15T05:07:43;98462.25;;;6.17;100.00
61434;BME280;47300;46.192;9.000;2022-11-15T05:10:09;98466.47;;;6.09;100.00
61434;BME280;47300;46.192;9.000;2022-11-15T05:12:34;98469.03;;;6.07;100.00
61434;BME280;47300;46.192;9.000;2022-11-15T05:15:00;98469.94;;;6.08;100.00
61434;BME280;47300;46.192;9.000;2022-11-15T05:17:25;98466.34;;;6.01;100.00
61434;BME280;47300;46.192;9.000;2022-11-15T05:19:50;98464.41;;;5.88;100.00
61434;BME280;47300;46.192;9.000;2022-11-15T05:22:17;98465.22;;;5.87;100.00
61434;BME280;47300;46.192;9.000;2022-11-15T05:24:43;98463.25;;;5.69;100.00
61434;BME280;47300;46.192;9.000;2022-11-15T05:27:08;98461.50;;;5.69;100.00
61434;BME280;47300;46.192;9.000;2022-11-15T05:29:33;98458.25;;;5.84;100.00
61434;BME280;47300;46.192;9.000;2022-11-15T05:31:59;98454.88;;;5.91;100.00
61434;BME280;47300;46.192;9.000;2022-11-15T05:34:24;98447.97;;;5.93;100.00
61434;BME280;47300;46.192;9.000;2022-11-15T05:36:50;98443.56;;;5.88;100.00
61434;BME280;47300;46.192;9.000;2022-11-15T05:39:16;98446.00;;;5.78;100.00
61434;BME280;47300;46.192;9.000;2022-11-15T05:41:47;98444.47;;;5.91;100.00
61434;BME280;47300;46.192;9.000;2022-11-15T05:44:16;98446.41;;;6.05;100.00
61434;BME280;47300;46.192;9.000;2022-11-15T05:46:43;98438.50;;;6.00;100.00
61434;BME280;47300;46.192;9.000;2022-11-15T05:49:12;98440.31;;;6.01;100.00
61434;BME280;47300;46.192;9.000;2022-11-15T05:51:39;98433.97;;;5.87;100.00
61434;BME280;47300;46.192;9.000;2022-11-15T05:54:06;98429.69;;;5.90;100.00
61434;BME280;47300;46.192;9.000;2022-11-15T05:56:32;98425.50;;;6.00;100.00
61434;BME280;47300;46.192;9.000;2022-11-15T05:58:58;98433.31;;;6.00;100.00
61434;BME280;47300;46.192;9.000;2022-11-15T06:01:25;98431.59;;;6.01;100.00
61434;BME280;47300;46.192;9.000;2022-11-15T06:03:51;98433.28;;;5.99;100.00
61434;BME280;47300;46.192;9.000;2022-11-15T06:06:16;98435.00;;;6.00;100.00
61434;BME280;47300;46.192;9.000;2022-11-15T06:08:42;98431.56;;;5.99;100.00
61434;BME280;47300;46.192;9.000;2022-11-15T06:11:07;98435.09;;;6.03;100.00
61434;BME280;47300;46.192;9.000;2022-11-15T06:13:33;98428.06;;;5.99;100.00
61434;BME280;47300;46.192;9.000;2022-11-15T06:15:59;98423.00;;;6.06;100.00
61434;BME280;47300;46.192;9.000;2022-11-15T06:18:25;98428.63;;;5.77;100.00
61434;BME280;47300;46.192;9.000;2022-11-15T06:20:50;98417.50;;;5.88;100.00
61434;BME280;47300;46.192;9.000;2022-11-15T06:23:16;98412.56;;;6.06;100.00
61434;BME280;47300;46.192;9.000;2022-11-15T06:25:42;98416.84;;;6.01;100.00
61434;BME280;47300;46.192;9.000;2022-11-15T06:28:07;98421.25;;;6.05;100.00
61434;BME280;47300;46.192;9.000;2022-11-15T06:30:33;98416.94;;;6.07;100.00
61434;BME280;47300;46.192;9.000;2022-11-15T06:33:02;98411.69;;;6.04;100.00
61434;BME280;47300;46.192;9.000;2022-11-15T06:35:28;98415.03;;;5.99;100.00
61434;BME280;47300;46.192;9.000;2022-11-15T06:37:53;98419.88;;;5.72;100.00
61434;BME280;47300;46.192;9.000;2022-11-15T06:40:19;98423.38;;;5.74;100.00
61434;BME280;47300;46.192;9.000;2022-11-15T06:42:44;98425.94;;;5.71;100.00
61434;BME280;47300;46.192;9.000;2022-11-15T06:45:09;98425.81;;;5.63;100.00
61434;BME280;47300;46.192;9.000;2022-11-15T06:47:35;98423.25;;;5.65;100.00
61434;BME280;47300;46.192;9.000;2022-11-15T06:50:00;98426.88;;;5.75;100.00
61434;BME280;47300;46.192;9.000;2022-11-15T06:52:26;98424.91;;;5.61;100.00
61434;BME280;47300;46.192;9.000;2022-11-15T06:54:52;98431.81;;;5.58;100.00
61434;BME280;47300;46.192;9.000;2022-11-15T06:57:17;98431.28;;;5.80;100.00
61434;BME280;47300;46.192;9.000;2022-11-15T06:59:42;98434.88;;;5.89;100.00
61434;BME280;47300;46.192;9.000;2022-11-15T07:02:12;98446.44;;;6.06;100.00
61434;BME280;47300;46.192;9.000;2022-11-15T07:04:38;98443.28;;;6.29;100.00
61434;BME280;47300;46.192;9.000;2022-11-15T07:07:03;98444.41;;;6.48;100.00
61434;BME280;47300;46.192;9.000;2022-11-15T07:09:28;98441.91;;;6.58;100.00
61434;BME280;47300;46.192;9.000;2022-11-15T07:11:54;98432.34;;;6.60;100.00
61434;BME280;47300;46.192;9.000;2022-11-15T07:14:19;98427.97;;;6.56;100.00
61434;BME280;47300;46.192;9.000;2022-11-15T07:16:44;98420.91;;;6.47;100.00
61434;BME280;47300;46.192;9.000;2022-11-15T07:19:10;98432.31;;;6.57;100.00
61434;BME280;47300;46.192;9.000;2022-11-15T07:21:36;98432.16;;;6.43;100.00
61434;BME280;47300;46.192;9.000;2022-11-15T07:24:01;98430.41;;;6.43;100.00
61434;BME280;47300;46.192;9.000;2022-11-15T07:26:26;98429.69;;;6.54;100.00
61434;BME280;47300;46.192;9.000;2022-11-15T07:28:52;98434.94;;;6.57;100.00
61434;BME280;47300;46.192;9.000;2022-11-15T07:31:17;98431.53;;;6.64;100.00
61434;BME280;47300;46.192;9.000;2022-11-15T07:33:42;98442.06;;;6.73;100.00
61434;BME280;47300;46.192;9.000;2022-11-15T07:36:08;98431.69;;;6.79;100.00
61434;BME280;47300;46.192;9.000;2022-11-15T07:38:34;98442.13;;;6.78;100.00
61434;BME280;47300;46.192;9.000;2022-11-15T07:41:04;98441.31;;;6.85;100.00
61434;BME280;47300;46.192;9.000;2022-11-15T07:43:29;98440.50;;;6.89;100.00
61434;BME280;47300;46.192;9.000;2022-11-15T07:45:57;98430.78;;;6.76;100.00
61434;BME280;47300;46.192;9.000;2022-11-15T07:48:23;98430.78;;;6.76;100.00
61434;BME280;47300;46.192;9.000;2022-11-15T07:50:48;98424.88;;;6.91;100.00
61434;BME280;47300;46.192;9.000;2022-11-15T07:53:14;98413.63;;;7.00;100.00
61434;BME280;47300;46.192;9.000;2022-11-15T07:55:40;98410.28;;;7.15;100.00
61434;BME280;47300;46.192;9.000;2022-11-15T07:58:08;98413.72;;;7.07;100.00
61434;BME280;47300;46.192;9.000;2022-11-15T08:00:34;98415.47;;;7.12;100.00
61434;BME280;47300;46.192;9.000;2022-11-15T08:03:10;98409.44;;;7.19;100.00
61434;BME280;47300;46.192;9.000;2022-11-15T08:05:36;98414.66;;;7.16;100.00
61434;BME280;47300;46.192;9.000;2022-11-15T08:08:02;98412.94;;;7.19;100.00
61434;BME280;47300;46.192;9.000;2022-11-15T08:10:28;98420.84;;;7.24;100.00
61434;BME280;47300;46.192;9.000;2022-11-15T08:13:02;98419.91;;;7.19;100.00
61434;BME280;47300;46.192;9.000;2022-11-15T08:15:28;98422.59;;;7.25;100.00
61434;BME280;47300;46.192;9.000;2022-11-15T08:17:58;98423.47;;;7.27;100.00
61434;BME280;47300;46.192;9.000;2022-11-15T08:20:24;98425.94;;;7.13;100.00
61434;BME280;47300;46.192;9.000;2022-11-15T08:22:50;98426.78;;;7.09;100.00
61434;BME280;47300;46.192;9.000;2022-11-15T08:25:16;98428.53;;;7.10;100.00
61434;BME280;47300;46.192;9.000;2022-11-15T08:27:41;98436.41;;;7.18;100.00
61434;BME280;47300;46.192;9.000;2022-11-15T08:30:07;98432.06;;;7.17;100.00
61434;BME280;47300;46.192;9.000;2022-11-15T08:32:32;98422.44;;;7.11;100.00
61434;BME280;47300;46.192;9.000;2022-11-15T08:34:57;98424.97;;;7.03;100.00
61434;BME280;47300;46.192;9.000;2022-11-15T08:37:23;98425.03;;;7.09;100.00
61434;BME280;47300;46.192;9.000;2022-11-15T08:39:48;98424.16;;;7.07;100.00
61434;BME280;47300;46.192;9.000;2022-11-15T08:42:14;98423.34;;;7.15;100.00
61434;BME280;47300;46.192;9.000;2022-11-15T08:44:41;98420.81;;;7.21;100.00
61434;BME280;47300;46.192;9.000;2022-11-15T08:47:06;98411.22;;;7.20;100.00
61434;BME280;47300;46.192;9.000;2022-11-15T08:49:32;98403.41;;;7.20;100.00
61434;BME280;47300;46.192;9.000;2022-11-15T08:51:57;98405.97;;;7.18;100.00
61434;BME280;47300;46.192;9.000;2022-11-15T08:54:22;98397.38;;;7.32;100.00
61434;BME280;47300;46.192;9.000;2022-11-15T08:56:48;98403.53;;;7.35;100.00
61434;BME280;47300;46.192;9.000;2022-11-15T08:59:13;98404.31;;;7.30;100.00
61434;BME280;47300;46.192;9.000;2022-11-15T09:01:38;98403.56;;;7.40;100.00
61434;BME280;47300;46.192;9.000;2022-11-15T09:04:04;98395.72;;;7.40;100.00
61434;BME280;47300;46.192;9.000;2022-11-15T09:06:30;98396.63;;;7.44;100.00
61434;BME280;47300;46.192;9.000;2022-11-15T09:08:56;98395.69;;;7.37;100.00
61434;BME280;47300;46.192;9.000;2022-11-15T09:11:22;98400.84;;;7.26;100.00
61434;BME280;47300;46.192;9.000;2022-11-15T09:13:49;98397.38;;;7.32;100.00
61434;BME280;47300;46.192;9.000;2022-11-15T09:16:14;98395.66;;;7.34;100.00
61434;BME280;47300;46.192;9.000;2022-11-15T09:18:40;98398.38;;;7.46;100.00
61434;BME280;47300;46.192;9.000;2022-11-15T09:21:06;98398.34;;;7.45;100.00
61434;BME280;47300;46.192;9.000;2022-11-15T09:23:32;98398.44;;;7.52;100.00
61434;BME280;47300;46.192;9.000;2022-11-15T09:26:02;98392.38;;;7.58;100.00
61434;BME280;47300;46.192;9.000;2022-11-15T09:28:28;98397.59;;;7.57;100.00
61434;BME280;47300;46.192;9.000;2022-11-15T09:31:02;98397.69;;;7.75;100.00
61434;BME280;47300;46.192;9.000;2022-11-15T09:33:28;98392.50;;;7.78;100.00
61434;BME280;47300;46.192;9.000;2022-11-15T09:35:54;98389.03;;;7.79;100.00
61434;BME280;47300;46.192;9.000;2022-11-15T09:38:19;98386.47;;;7.89;100.00
61434;BME280;47300;46.192;9.000;2022-11-15T09:40:51;98389.97;;;7.92;100.00
61434;BME280;47300;46.192;9.000;2022-11-15T09:43:47;98386.44;;;7.84;100.00
61434;BME280;47300;46.192;9.000;2022-11-15T09:46:38;98396.06;;;7.91;100.00
61434;BME280;47300;46.192;9.000;2022-11-15T09:49:12;98396.06;;;7.93;100.00
61434;BME280;47300;46.192;9.000;2022-11-15T09:51:41;98390.84;;;7.94;100.00
61434;BME280;47300;46.192;9.000;2022-11-15T09:56:46;98390.91;;;8.08;100.00
61434;BME280;47300;46.192;9.000;2022-11-15T10:04:28;98386.44;;;7.82;100.00
61434;BME280;47300;46.192;9.000;2022-11-15T10:07:01;98385.59;;;7.87;100.00
61434;BME280;47300;46.192;9.000;2022-11-15T10:09:34;98383.88;;;7.92;100.00
61434;BME280;47300;46.192;9.000;2022-11-15T10:12:01;98380.41;;;7.93;100.00
61434;BME280;47300;46.192;9.000;2022-11-15T10:14:28;98372.59;;;8.02;100.00
61434;BME280;47300;46.192;9.000;2022-11-15T10:17:05;98374.41;;;8.17;100.00
61434;BME280;47300;46.192;9.000;2022-11-15T10:19:50;98367.47;;;8.29;100.00
61434;BME280;47300;46.192;9.000;2022-11-15T10:22:39;98374.47;;;8.34;100.00
61434;BME280;47300;46.192;9.000;2022-11-15T10:25:10;98368.38;;;8.38;100.00
61434;BME280;47300;46.192;9.000;2022-11-15T10:27:39;98366.63;;;8.34;100.00
61434;BME280;47300;46.192;9.000;2022-11-15T10:30:12;98362.31;;;8.44;100.00
61434;BME280;47300;46.192;9.000;2022-11-15T10:32:39;98358.91;;;8.65;100.00
61434;BME280;47300;46.192;9.000;2022-11-15T10:35:26;98356.28;;;8.56;100.00
61434;BME280;47300;46.192;9.000;2022-11-15T10:38:00;98351.91;;;8.53;100.00
61434;BME280;47300;46.192;9.000;2022-11-15T10:40:29;98348.38;;;8.50;100.00
61434;BME280;47300;46.192;9.000;2022-11-15T10:43:23;98342.25;;;8.46;100.00
61434;BME280;47300;46.192;9.000;2022-11-15T10:45:51;98330.09;;;8.51;100.00
61434;BME280;47300;46.192;9.000;2022-11-15T10:50:44;98332.72;;;8.67;100.00
61434;BME280;47300;46.192;9.000;2022-11-15T10:53:27;98318.78;;;8.65;100.00
61434;BME280;47300;46.192;9.000;2022-11-15T10:55:59;98317.91;;;8.77;100.00
61434;BME280;47300;46.192;9.000;2022-11-15T11:03:39;98302.22;;;8.61;100.00
61434;BME280;47300;46.192;9.000;2022-11-15T11:06:16;98293.47;;;8.64;100.00
61434;BME280;47300;46.192;9.000;2022-11-15T11:09:05;98292.63;;;8.80;100.00
61434;BME280;47300;46.192;9.000;2022-11-15T11:11:47;98282.16;;;8.96;100.00
61434;BME280;47300;46.192;9.000;2022-11-15T11:24:56;98272.56;;;8.81;100.00
61434;BME280;47300;46.192;9.000;2022-11-15T11:33:17;98260.34;;;8.86;100.00
61434;BME280;47300;46.192;9.000;2022-11-15T11:38:52;98247.25;;;9.06;100.00
61434;BME280;47300;46.192;9.000;2022-11-15T11:41:32;98243.75;;;9.04;100.00
61434;BME280;47300;46.192;9.000;2022-11-15T11:44:24;98252.50;;;8.95;100.00
61434;BME280;47300;46.192;9.000;2022-11-15T11:47:01;98245.53;;;8.77;100.00
61434;BME280;47300;46.192;9.000;2022-11-15T11:50:10;98235.06;;;8.79;100.00
61434;BME280;47300;46.192;9.000;2022-11-15T11:53:01;98235.94;;;8.86;100.00
61434;BME280;47300;46.192;9.000;2022-11-15T11:55:29;98236.78;;;8.83;100.00
61434;BME280;47300;46.192;9.000;2022-11-15T12:00:31;98236.78;;;8.83;100.00
61434;BME280;47300;46.192;9.000;2022-11-15T12:03:08;98233.31;;;8.86;100.00
61434;BME280;47300;46.192;9.000;2022-11-15T12:05:45;98227.19;;;9.01;100.00
61434;BME280;47300;46.192;9.000;2022-11-15T12:10:54;98224.56;;;9.07;100.00
61434;BME280;47300;46.192;9.000;2022-11-15T12:13:26;98211.44;;;9.19;100.00
61434;BME280;47300;46.192;9.000;2022-11-15T12:16:03;98208.81;;;9.32;100.00
61434;BME280;47300;46.192;9.000;2022-11-15T12:18:30;98203.56;;;9.22;100.00
61434;BME280;47300;46.192;9.000;2022-11-15T12:21:17;98208.81;;;9.27;100.00
61434;BME280;47300;46.192;9.000;2022-11-15T12:23:49;98210.53;;;9.33;100.00
61434;BME280;47300;46.192;9.000;2022-11-15T12:26:19;98200.97;;;9.29;100.00
61434;BME280;47300;46.192;9.000;2022-11-15T12:28:51;98196.59;;;9.20;100.00
61434;BME280;47300;46.192;9.000;2022-11-15T12:31:36;98198.38;;;8.99;100.00
61434;BME280;47300;46.192;9.000;2022-11-15T12:34:13;98194.88;;;9.03;100.00
61434;BME280;47300;46.192;9.000;2022-11-15T12:36:42;98194.03;;;9.00;100.00
61434;BME280;47300;46.192;9.000;2022-11-15T12:39:10;98190.56;;;8.91;100.00
61434;BME280;47300;46.192;9.000;2022-11-15T12:41:37;98184.44;;;8.89;100.00
61434;BME280;47300;46.192;9.000;2022-11-15T12:44:03;98189.66;;;9.03;100.00
61434;BME280;47300;46.192;9.000;2022-11-15T13:02:35;98166.09;;;9.03;100.00
61434;BME280;47300;46.192;9.000;2022-11-15T13:17:47;98149.47;;;9.18;100.00
61434;BME280;47300;46.192;9.000;2022-11-15T13:27:51;98126.75;;;9.28;100.00
61434;BME280;47300;46.192;9.000;2022-11-15T13:30:23;98118.88;;;9.23;100.00
61434;BME280;47300;46.192;9.000;2022-11-15T13:32:50;98118.94;;;9.14;100.00
61434;BME280;47300;46.192;9.000;2022-11-15T13:35:25;98112.00;;;8.97;100.00
61434;BME280;47300;46.192;9.000;2022-11-15T13:37:55;98112.03;;;8.85;100.00
61434;BME280;47300;46.192;9.000;2022-11-15T13:40:35;98108.50;;;8.97;100.00
61434;BME280;47300;46.192;9.000;2022-11-15T13:48:35;98093.66;;;9.11;100.00
61434;BME280;47300;46.192;9.000;2022-11-15T13:51:12;98084.00;;;9.18;100.00
61434;BME280;47300;46.192;9.000;2022-11-15T13:53:41;98084.84;;;9.25;100.00
61434;BME280;47300;46.192;9.000;2022-11-15T13:56:09;98077.00;;;9.22;100.00
61434;BME280;47300;46.192;9.000;2022-11-15T13:58:38;98078.69;;;9.27;100.00
61434;BME280;47300;46.192;9.000;2022-11-15T14:01:04;98071.75;;;9.25;100.00
61434;BME280;47300;46.192;9.000;2022-11-15T14:03:33;98069.16;;;9.22;100.00
61434;BME280;47300;46.192;9.000;2022-11-15T14:06:12;98070.81;;;9.37;100.00
61434;BME280;47300;46.192;9.000;2022-11-15T14:08:56;98062.97;;;9.32;100.00
61434;BME280;47300;46.192;9.000;2022-11-15T14:11:22;98056.97;;;9.15;100.00
61434;BME280;47300;46.192;9.000;2022-11-15T14:16:34;98057.03;;;8.96;100.00
61434;BME280;47300;46.192;9.000;2022-11-15T14:19:00;98068.41;;;8.86;100.00
61434;BME280;47300;46.192;9.000;2022-11-15T14:21:26;98063.16;;;8.92;100.00
61434;BME280;47300;46.192;9.000;2022-11-15T14:23:51;98060.50;;;9.03;100.00
61434;BME280;47300;46.192;9.000;2022-11-15T14:26:31;98059.63;;;8.99;100.00
61434;BME280;47300;46.192;9.000;2022-11-15T14:28:57;98057.91;;;9.00;100.00
61434;BME280;47300;46.192;9.000;2022-11-15T14:31:42;98052.66;;;9.03;100.00
61434;BME280;47300;46.192;9.000;2022-11-15T14:34:08;98052.63;;;9.09;100.00
61434;BME280;47300;46.192;9.000;2022-11-15T14:36:33;98047.38;;;9.07;100.00
61434;BME280;47300;46.192;9.000;2022-11-15T14:38:59;98046.53;;;9.02;100.00
61434;BME280;47300;46.192;9.000;2022-11-15T14:41:25;98046.59;;;8.91;100.00
61434;BME280;47300;46.192;9.000;2022-11-15T14:43:52;98042.34;;;8.59;100.00
61434;BME280;47300;46.192;9.000;2022-11-15T14:46:18;98034.44;;;8.70;100.00
61434;BME280;47300;46.192;9.000;2022-11-15T14:48:43;98033.53;;;8.79;100.00
61434;BME280;47300;46.192;9.000;2022-11-15T14:51:18;98030.03;;;8.85;100.00
61434;BME280;47300;46.192;9.000;2022-11-15T14:53:44;98023.03;;;8.85;100.00
61434;BME280;47300;46.192;9.000;2022-11-15T14:56:10;98026.53;;;8.89;100.00
61434;BME280;47300;46.192;9.000;2022-11-15T14:58:36;98014.31;;;8.91;100.00
61434;BME280;47300;46.192;9.000;2022-11-15T15:01:10;98012.53;;;8.96;100.00
61434;BME280;47300;46.192;9.000;2022-11-15T15:03:37;98013.34;;;9.04;100.00
61434;BME280;47300;46.192;9.000;2022-11-15T15:06:02;98014.28;;;8.97;100.00